Time;durP1;ratioP1;P1;durP2;ratioP2;P2;SDS_P1;SDS_P2;PMS_P1;PMS_P2;Temp;Humidity;BMP_temperature;BMP_pressure;BME280_temperature;BME280_humidity;BME280_pressure;Samples;Min_cycle;Max_cycle;Signal;HPM_P1;HPM_P2
2022/03/22 00:00:31;;;;;;;;;;;;;;;15.78;34.89;102581.13;4905407;28;119941;-64
2022/03/22 00:02:57;;;;;;;;;;;;;;;15.76;35.16;102580.56;4940840;28;108571;-65
2022/03/22 00:05:23;;;;;;;;;;;;;;;15.74;35.07;102590.03;4940073;28;112221;-64
2022/03/22 00:07:50;;;;;;;;;;;;;;;15.72;35.20;102593.03;4922634;28;97874;-69
2022/03/22 00:10:15;;;;;;;;;;;;;;;15.71;35.41;102591.34;4936870;28;126610;-65
2022/03/22 00:12:42;;;;;;;;;;;;;;;15.67;35.18;102595.66;4939459;28;126660;-71
2022/03/22 00:15:08;;;;;;;;;;;;;;;15.66;35.15;102594.81;4939492;28;97963;-65
2022/03/22 00:17:34;;;;;;;;;;;;;;;15.64;35.01;102586.09;4941094;28;116719;-70
2022/03/22 00:20:00;;;;;;;;;;;;;;;15.63;35.33;102589.84;4939189;28;123694;-64
2022/03/22 00:22:27;;;;;;;;;;;;;;;15.59;35.20;102587.88;4940648;28;98817;-68
2022/03/22 00:24:54;;;;;;;;;;;;;;;15.57;35.29;102581.91;4939687;28;97945;-69
2022/03/22 00:27:19;;;;;;;;;;;;;;;15.55;35.45;102578.59;4941398;28;97734;-65
2022/03/22 00:29:45;;;;;;;;;;;;;;;15.53;35.03;102584.28;4940495;28;98135;-70
2022/03/22 00:32:11;;;;;;;;;;;;;;;15.50;35.03;102579.34;4938346;28;129746;-70
2022/03/22 00:34:46;;;;;;;;;;;;;;;15.47;34.99;102583.38;4922093;28;97973;-70
2022/03/22 00:37:15;;;;;;;;;;;;;;;15.45;35.48;102577.38;4940842;28;98761;-70
2022/03/22 00:39:45;;;;;;;;;;;;;;;15.43;35.47;102581.41;4939530;28;120126;-70
2022/03/22 00:42:11;;;;;;;;;;;;;;;15.41;35.04;102575.41;4940965;28;98207;-69
2022/03/22 00:44:38;;;;;;;;;;;;;;;15.39;35.03;102581.09;4922036;28;100391;-65
2022/03/22 00:47:08;;;;;;;;;;;;;;;15.37;35.16;102576.97;4906102;28;98164;-71
2022/03/22 00:49:36;;;;;;;;;;;;;;;15.35;35.33;102579.94;4938226;28;127856;-70
2022/03/22 00:52:04;;;;;;;;;;;;;;;15.34;35.49;102577.47;4940148;28;98362;-68
2022/03/22 00:54:31;;;;;;;;;;;;;;;15.31;35.20;102578.78;4939897;28;98039;-64
2022/03/22 00:56:58;;;;;;;;;;;;;;;15.29;35.20;102578.22;4940539;28;98544;-69
2022/03/22 01:02:08;;;;;;;;;;;;;;;15.26;35.49;102580.63;4940248;28;98098;-70
2022/03/22 01:04:35;;;;;;;;;;;;;;;15.23;35.22;102573.78;4920617;28;127548;-69
2022/03/22 01:07:02;;;;;;;;;;;;;;;15.21;35.16;102573.22;4921812;28;97870;-65
2022/03/22 01:09:29;;;;;;;;;;;;;;;15.19;35.49;102576.16;4939203;28;99072;-65
2022/03/22 01:11:56;;;;;;;;;;;;;;;15.17;35.50;102563.91;4921756;28;98346;-70
2022/03/22 01:14:22;;;;;;;;;;;;;;;15.15;35.14;102566.03;4939820;28;98228;-69
2022/03/22 01:16:48;;;;;;;;;;;;;;;15.13;35.20;102566.28;4939919;28;117659;-70
2022/03/22 01:19:14;;;;;;;;;;;;;;;15.11;35.52;102568.41;4938708;28;127955;-64
2022/03/22 01:21:39;;;;;;;;;;;;;;;15.07;35.65;102570.00;4939444;28;127846;-69
2022/03/22 01:24:07;;;;;;;;;;;;;;;15.06;35.50;102570.25;4937799;28;127844;-64
2022/03/22 01:26:33;;;;;;;;;;;;;;;15.02;35.14;102569.09;4940314;28;97973;-70
2022/03/22 01:28:59;;;;;;;;;;;;;;;15.02;35.42;102575.34;4918890;28;98428;-65
2022/03/22 01:31:25;;;;;;;;;;;;;;;14.98;35.38;102575.00;4919575;28;128596;-69
2022/03/22 01:33:51;;;;;;;;;;;;;;;14.97;35.31;102577.94;4912457;28;98035;-70
2022/03/22 01:36:17;;;;;;;;;;;;;;;14.93;35.65;102564.06;4920946;28;118139;-69
2022/03/22 01:38:44;;;;;;;;;;;;;;;14.92;35.46;102570.53;4923908;28;128408;-65
2022/03/22 01:41:10;;;;;;;;;;;;;;;14.92;35.56;102575.16;4924462;28;98398;-64
2022/03/22 01:43:36;;;;;;;;;;;;;;;14.88;35.63;102577.53;4941876;28;126674;-64
2022/03/22 01:46:02;;;;;;;;;;;;;;;14.86;35.66;102576.97;4941998;28;117855;-69
2022/03/22 01:48:28;;;;;;;;;;;;;;;14.84;35.43;102573.66;4940906;28;130035;-64
2022/03/22 01:50:54;;;;;;;;;;;;;;;14.81;35.59;102571.44;4941415;28;126353;-64
2022/03/22 01:53:20;;;;;;;;;;;;;;;14.80;35.82;102569.78;4942434;28;98263;-65
2022/03/22 01:55:46;;;;;;;;;;;;;;;14.78;35.32;102577.38;4923061;28;118051;-69
2022/03/22 01:58:13;;;;;;;;;;;;;;;14.76;35.32;102579.50;4920072;28;127537;-70
2022/03/22 02:00:39;;;;;;;;;;;;;;;14.73;35.64;102580.81;4905217;28;98804;-69
2022/03/22 02:05:55;;;;;;;;;;;;;;;14.70;35.77;102573.16;4926398;28;98002;-64
2022/03/22 02:08:24;;;;;;;;;;;;;;;14.69;35.68;102567.97;4924959;28;98461;-65
2022/03/22 02:10:50;;;;;;;;;;;;;;;14.66;35.47;102569.31;4924141;28;130168;-65
2022/03/22 02:13:16;;;;;;;;;;;;;;;14.65;35.53;102566.81;4924913;28;98387;-65
2022/03/22 02:15:43;;;;;;;;;;;;;;;14.63;35.76;102564.34;4942198;28;98010;-69
2022/03/22 02:18:09;;;;;;;;;;;;;;;14.62;35.82;102570.00;4924265;28;98422;-64
2022/03/22 02:20:36;;;;;;;;;;;;;;;14.58;35.44;102564.28;4941141;28;127877;-70
2022/03/22 02:23:06;;;;;;;;;;;;;;;14.58;35.55;102566.97;4941285;28;126198;-70
2022/03/22 02:25:33;;;;;;;;;;;;;;;14.56;35.81;102566.38;4943636;28;98118;-64
2022/03/22 02:27:59;;;;;;;;;;;;;;;14.53;35.76;102561.44;4940588;28;101342;-70
2022/03/22 02:30:25;;;;;;;;;;;;;;;14.51;35.57;102566.31;4942263;28;99291;-70
2022/03/22 02:32:55;;;;;;;;;;;;;;;14.49;35.82;102568.41;4942772;28;98223;-70
2022/03/22 02:35:22;;;;;;;;;;;;;;;14.47;35.92;102565.94;4943027;28;97904;-64
2022/03/22 02:37:48;;;;;;;;;;;;;;;14.45;35.60;102559.91;4923184;28;115947;-69
2022/03/22 02:40:14;;;;;;;;;;;;;;;14.44;35.86;102557.44;4941056;28;128029;-64
2022/03/22 02:42:44;;;;;;;;;;;;;;;14.41;35.56;102556.03;4924045;28;97883;-69
2022/03/22 02:45:11;;;;;;;;;;;;;;;14.39;35.65;102566.31;4941397;28;99381;-70
2022/03/22 02:47:39;;;;;;;;;;;;;;;14.39;35.64;102568.22;4941930;28;99202;-64
2022/03/22 02:50:05;;;;;;;;;;;;;;;14.38;35.82;102566.53;4940158;28;98550;-68
2022/03/22 02:52:31;;;;;;;;;;;;;;;14.36;35.74;102566.78;4940623;28;121121;-65
2022/03/22 02:55:00;;;;;;;;;;;;;;;14.34;35.63;102565.38;4941697;28;118118;-65
2022/03/22 02:57:26;;;;;;;;;;;;;;;14.31;35.84;102566.72;4923076;28;98957;-65
2022/03/22 02:59:52;;;;;;;;;;;;;;;14.29;35.86;102557.97;4941247;28;128099;-71
2022/03/22 03:02:18;;;;;;;;;;;;;;;14.28;35.64;102552.81;4940681;28;123447;-70
2022/03/22 03:04:44;;;;;;;;;;;;;;;14.27;35.64;102559.31;4941092;28;118601;-70
2022/03/22 03:07:10;;;;;;;;;;;;;;;14.23;35.95;102556.25;4940765;28;128096;-65
2022/03/22 03:09:35;;;;;;;;;;;;;;;14.23;35.62;102556.25;4940710;28;98842;-65
2022/03/22 03:12:01;;;;;;;;;;;;;;;14.22;35.76;102560.00;4940544;28;127270;-65
2022/03/22 03:14:39;;;;;;;;;;;;;;;14.21;35.78;102566.50;4907445;28;108018;-69
2022/03/22 03:17:10;;;;;;;;;;;;;;;14.18;35.58;102559.66;4910271;28;98455;-69
2022/03/22 03:19:36;;;;;;;;;;;;;;;14.16;35.85;102560.97;4906248;28;100063;-70
2022/03/22 03:22:03;;;;;;;;;;;;;;;14.13;35.58;102562.28;4923444;28;98029;-64
2022/03/22 03:24:32;;;;;;;;;;;;;;;14.13;35.93;102567.69;4941959;28;98212;-65
2022/03/22 03:26:58;;;;;;;;;;;;;;;14.11;35.89;102567.13;4940962;28;98792;-70
2022/03/22 03:29:24;;;;;;;;;;;;;;;14.11;35.83;102571.69;4940952;28;98147;-64
2022/03/22 03:31:50;;;;;;;;;;;;;;;14.09;35.96;102574.66;4940534;28;127019;-69
2022/03/22 03:34:16;;;;;;;;;;;;;;;14.06;35.97;102572.44;4923759;28;98041;-64
2022/03/22 03:36:42;;;;;;;;;;;;;;;14.04;36.01;102569.16;4923552;28;98401;-69
2022/03/22 03:39:09;;;;;;;;;;;;;;;14.04;35.83;102573.75;4940926;28;116937;-69
2022/03/22 03:41:53;;;;;;;;;;;;;;;14.00;35.94;102571.50;4940831;28;99771;-64
2022/03/22 03:47:09;;;;;;;;;;;;;;;13.98;35.87;102572.81;4940716;28;98319;-65
2022/03/22 03:49:45;;;;;;;;;;;;;;;13.95;35.96;102568.72;4940833;28;98404;-68
2022/03/22 03:52:13;;;;;;;;;;;;;;;13.93;35.98;102573.53;4940962;28;122294;-64
2022/03/22 03:54:39;;;;;;;;;;;;;;;13.92;35.95;102573.78;4922674;28;98473;-64
2022/03/22 03:57:05;;;;;;;;;;;;;;;13.90;35.97;102578.59;4940835;28;99240;-69
2022/03/22 03:59:32;;;;;;;;;;;;;;;13.88;36.03;102575.31;4940147;28;98997;-70
2022/03/22 04:01:58;;;;;;;;;;;;;;;13.86;35.87;102575.53;4923017;28;97883;-65
2022/03/22 04:04:24;;;;;;;;;;;;;;;13.85;35.95;102581.22;4940295;28;98253;-64
2022/03/22 04:06:50;;;;;;;;;;;;;;;13.83;36.13;102581.44;4938499;28;126854;-64
2022/03/22 04:09:16;;;;;;;;;;;;;;;13.80;35.90;102581.09;4939188;28;116167;-64
2022/03/22 04:11:42;;;;;;;;;;;;;;;13.78;35.96;102570.50;4938704;28;98946;-65
2022/03/22 04:14:08;;;;;;;;;;;;;;;13.77;35.88;102582.41;4939697;28;98503;-70
2022/03/22 04:16:36;;;;;;;;;;;;;;;13.74;36.12;102575.56;4938386;28;109071;-64
2022/03/22 04:19:05;;;;;;;;;;;;;;;13.73;35.95;102573.91;4921343;28;98396;-69
2022/03/22 04:21:34;;;;;;;;;;;;;;;13.71;36.17;102576.03;4938877;28;98096;-70
2022/03/22 04:24:06;;;;;;;;;;;;;;;13.71;36.26;102572.50;4940581;28;97819;-64
2022/03/22 04:26:36;;;;;;;;;;;;;;;13.69;36.38;102586.28;4937731;28;125463;-70
2022/03/22 04:34:32;;;;;;;;;;;;;;;13.63;36.01;102583.69;4937037;28;98237;-65
2022/03/22 04:36:59;;;;;;;;;;;;;;;13.60;35.98;102593.16;4939693;28;98551;-70
2022/03/22 04:39:25;;;;;;;;;;;;;;;13.61;36.23;102592.06;4939196;28;98048;-65
2022/03/22 04:41:52;;;;;;;;;;;;;;;13.59;36.17;102594.19;4938194;28;98671;-64
2022/03/22 04:44:18;;;;;;;;;;;;;;;13.58;36.16;102591.72;4904687;28;97911;-64
2022/03/22 04:46:44;;;;;;;;;;;;;;;13.57;36.14;102592.78;4920014;28;120005;-64
2022/03/22 04:49:10;;;;;;;;;;;;;;;13.55;36.23;102593.00;4918066;28;101231;-69
2022/03/22 04:57:05;;;;;;;;;;;;;;;13.51;36.03;102597.25;4938197;28;97825;-64
2022/03/22 04:59:31;;;;;;;;;;;;;;;13.50;36.30;102599.13;4920297;28;127421;-70
2022/03/22 05:01:57;;;;;;;;;;;;;;;13.48;36.12;102600.44;4937853;28;126431;-64
2022/03/22 05:04:23;;;;;;;;;;;;;;;13.43;36.29;102597.59;4939277;28;98154;-69
2022/03/22 05:06:49;;;;;;;;;;;;;;;13.37;36.28;102601.28;4937642;28;127285;-70
2022/03/22 05:09:15;;;;;;;;;;;;;;;13.31;36.49;102600.31;4938616;28;107548;-64
2022/03/22 05:11:41;;;;;;;;;;;;;;;13.26;36.52;102600.19;4938713;28;127637;-64
2022/03/22 05:14:08;;;;;;;;;;;;;;;13.19;36.47;102602.97;4942064;28;104805;-64
2022/03/22 05:16:35;;;;;;;;;;;;;;;13.13;36.43;102597.69;4942647;28;98531;-64
2022/03/22 05:19:01;;;;;;;;;;;;;;;13.09;36.33;102604.63;4942225;28;98769;-70
2022/03/22 05:21:27;;;;;;;;;;;;;;;13.03;36.51;102611.75;4940052;28;98396;-67
2022/03/22 05:23:53;;;;;;;;;;;;;;;12.99;36.57;102607.88;4940168;28;123267;-64
2022/03/22 05:26:19;;;;;;;;;;;;;;;12.95;36.71;102606.69;4939550;28;125606;-70
2022/03/22 05:28:45;;;;;;;;;;;;;;;12.92;36.80;102604.44;4941094;28;113687;-64
2022/03/22 05:31:12;;;;;;;;;;;;;;;12.89;36.89;102607.59;4939906;28;111606;-67
2022/03/22 05:33:41;;;;;;;;;;;;;;;12.87;36.83;102612.44;4940742;28;97804;-69
2022/03/22 05:36:08;;;;;;;;;;;;;;;12.85;36.80;102609.97;4939561;28;99295;-70
2022/03/22 05:38:34;;;;;;;;;;;;;;;12.85;37.03;102614.53;4938514;28;98824;-69
2022/03/22 05:41:02;;;;;;;;;;;;;;;12.84;37.24;102610.19;4936123;28;127668;-69
2022/03/22 05:43:28;;;;;;;;;;;;;;;12.85;37.21;102606.41;4938466;28;97710;-69
2022/03/22 05:45:53;;;;;;;;;;;;;;;12.87;37.53;102610.53;4936402;28;127540;-64
2022/03/22 05:48:20;;;;;;;;;;;;;;;12.88;37.34;102608.66;4929642;28;127965;-64
2022/03/22 05:50:45;;;;;;;;;;;;;;;12.89;37.42;102616.56;4937232;28;97967;-64
2022/03/22 05:53:12;;;;;;;;;;;;;;;12.93;37.48;102615.06;4937639;28;122572;-70
2022/03/22 05:55:38;;;;;;;;;;;;;;;12.95;37.49;102620.22;4935470;28;98332;-69
2022/03/22 05:58:05;;;;;;;;;;;;;;;12.98;37.62;102615.16;4937165;28;121548;-69
2022/03/22 06:00:30;;;;;;;;;;;;;;;13.01;37.62;102622.84;4937497;28;126035;-70
2022/03/22 06:02:56;;;;;;;;;;;;;;;13.06;37.83;102615.91;4937517;28;121025;-63
2022/03/22 06:05:22;;;;;;;;;;;;;;;13.09;37.78;102620.84;4936160;28;126057;-63
2022/03/22 06:07:48;;;;;;;;;;;;;;;13.11;38.05;102622.25;4937124;28;127989;-70
2022/03/22 06:10:14;;;;;;;;;;;;;;;13.14;38.04;102621.81;4932127;28;99063;-65
2022/03/22 06:12:41;;;;;;;;;;;;;;;13.18;38.21;102625.69;4940742;28;122530;-64
2022/03/22 06:15:15;;;;;;;;;;;;;;;13.22;38.20;102626.06;4940685;28;98584;-70
2022/03/22 06:17:47;;;;;;;;;;;;;;;13.27;38.28;102626.19;4923929;28;98445;-63
2022/03/22 06:20:14;;;;;;;;;;;;;;;13.33;38.36;102624.47;4923258;28;98087;-68
2022/03/22 06:22:40;;;;;;;;;;;;;;;13.38;38.43;102619.97;4923496;28;98433;-63
2022/03/22 06:25:06;;;;;;;;;;;;;;;13.46;38.56;102629.66;4940936;28;98984;-68
2022/03/22 06:27:35;;;;;;;;;;;;;;;13.51;38.58;102630.59;4940089;28;112061;-69
2022/03/22 06:30:03;;;;;;;;;;;;;;;13.60;38.52;102630.25;4939723;28;99416;-70
2022/03/22 06:32:29;;;;;;;;;;;;;;;13.63;38.45;102627.88;4922937;28;97953;-70
2022/03/22 06:34:55;;;;;;;;;;;;;;;13.69;38.66;102629.66;4940938;28;98342;-68
2022/03/22 06:37:21;;;;;;;;;;;;;;;13.76;38.66;102634.97;4921291;28;128432;-64
2022/03/22 06:39:47;;;;;;;;;;;;;;;13.83;38.81;102630.22;4906428;28;97999;-64
2022/03/22 06:42:14;;;;;;;;;;;;;;;13.94;38.88;102629.38;4922412;28;115172;-70
2022/03/22 06:44:40;;;;;;;;;;;;;;;14.06;38.70;102636.69;4940172;28;98563;-64
2022/03/22 06:47:06;;;;;;;;;;;;;;;14.14;38.98;102625.47;4922777;28;98077;-64
2022/03/22 06:49:32;;;;;;;;;;;;;;;14.32;38.79;102635.34;4918151;28;127479;-70
2022/03/22 06:51:58;;;;;;;;;;;;;;;14.44;38.67;102628.81;4920423;28;121408;-64
2022/03/22 06:54:25;;;;;;;;;;;;;;;14.55;38.53;102629.88;4933867;28;128526;-64
2022/03/22 06:56:51;;;;;;;;;;;;;;;14.68;38.45;102634.19;4940540;28;99144;-70
2022/03/22 06:59:17;;;;;;;;;;;;;;;14.65;38.58;102638.19;4940412;28;107075;-69
2022/03/22 07:01:43;;;;;;;;;;;;;;;14.70;38.40;102640.22;4941336;28;97694;-70
2022/03/22 07:04:09;;;;;;;;;;;;;;;14.72;38.86;102628.03;4939103;28;128234;-70
2022/03/22 07:06:34;;;;;;;;;;;;;;;14.79;38.62;102636.03;4939716;28;128412;-65
2022/03/22 07:09:00;;;;;;;;;;;;;;;14.84;38.57;102638.00;4939629;28;126369;-71
2022/03/22 07:14:11;;;;;;;;;;;;;;;14.95;38.94;102634.41;4937199;28;98021;-70
2022/03/22 07:16:37;;;;;;;;;;;;;;;15.03;38.71;102636.72;4939760;28;127888;-64
2022/03/22 07:19:03;;;;;;;;;;;;;;;15.13;38.90;102636.06;4940583;28;98373;-70
2022/03/22 07:21:29;;;;;;;;;;;;;;;15.21;39.17;102638.41;4940130;28;110064;-70
2022/03/22 07:23:55;;;;;;;;;;;;;;;15.28;38.84;102633.63;4918959;28;99152;-69
2022/03/22 07:26:22;;;;;;;;;;;;;;;15.36;39.22;102632.38;4920082;28;99851;-70
2022/03/22 07:28:48;;;;;;;;;;;;;;;15.46;39.31;102638.00;4929093;28;98517;-64
2022/03/22 07:31:14;;;;;;;;;;;;;;;15.56;39.28;102627.28;4918124;28;100364;-64
2022/03/22 07:33:40;;;;;;;;;;;;;;;15.70;39.19;102634.03;4936376;28;113530;-64
2022/03/22 07:36:06;;;;;;;;;;;;;;;15.83;39.44;102643.72;4938428;28;127217;-64
2022/03/22 07:38:32;;;;;;;;;;;;;;;16.02;39.10;102640.72;4940054;28;98209;-64
2022/03/22 07:40:58;;;;;;;;;;;;;;;16.23;38.98;102630.91;4920175;28;122337;-64
2022/03/22 07:43:24;;;;;;;;;;;;;;;16.49;38.92;102641.03;4920194;28;126069;-68
2022/03/22 07:45:50;;;;;;;;;;;;;;;16.77;38.71;102640.00;4938669;28;128285;-64
2022/03/22 07:48:16;;;;;;;;;;;;;;;17.03;38.54;102634.84;4939527;28;110593;-68
2022/03/22 07:53:26;;;;;;;;;;;;;;;17.70;38.30;102630.72;4921306;28;97955;-63
2022/03/22 07:55:52;;;;;;;;;;;;;;;18.08;38.07;102624.97;4920097;28;128672;-63
2022/03/22 07:58:18;;;;;;;;;;;;;;;18.51;37.78;102630.28;4938518;28;127584;-69
2022/03/22 08:00:45;;;;;;;;;;;;;;;18.99;37.31;102623.59;4939021;28;97949;-64
2022/03/22 08:03:15;;;;;;;;;;;;;;;19.51;36.93;102630.66;4939643;28;99683;-70
2022/03/22 08:05:41;;;;;;;;;;;;;;;20.11;36.47;102623.41;4921762;28;98532;-64
2022/03/22 08:08:08;;;;;;;;;;;;;;;20.76;36.20;102628.03;4940415;28;97999;-64
2022/03/22 08:10:33;;;;;;;;;;;;;;;21.54;35.50;102618.91;4939192;28;99515;-69
2022/03/22 08:13:00;;;;;;;;;;;;;;;22.45;34.97;102624.44;4940055;28;98000;-64
2022/03/22 08:15:26;;;;;;;;;;;;;;;23.36;34.40;102622.19;4939815;28;98909;-69
2022/03/22 08:17:52;;;;;;;;;;;;;;;24.32;33.52;102629.66;4939706;28;97849;-64
2022/03/22 08:20:18;;;;;;;;;;;;;;;25.28;33.29;102636.84;4938678;28;117675;-71
2022/03/22 08:22:59;;;;;;;;;;;;;;;26.30;32.56;102619.38;4938309;28;127643;-70
2022/03/22 08:25:28;;;;;;;;;;;;;;;27.41;31.91;102623.22;4939719;28;99005;-70
2022/03/22 08:27:54;;;;;;;;;;;;;;;28.30;31.53;102630.81;4939462;28;97820;-71
2022/03/22 08:30:21;;;;;;;;;;;;;;;29.15;30.75;102629.59;4938457;28;97791;-64
2022/03/22 08:32:51;;;;;;;;;;;;;;;30.01;30.15;102633.31;4920800;28;98215;-64
2022/03/22 08:35:18;;;;;;;;;;;;;;;30.74;30.02;102633.19;4939093;28;98323;-63
2022/03/22 08:37:44;;;;;;;;;;;;;;;31.24;29.67;102620.63;4938275;28;97836;-70
2022/03/22 08:40:10;;;;;;;;;;;;;;;31.67;29.59;102627.28;4938920;28;97865;-64
2022/03/22 08:42:41;;;;;;;;;;;;;;;32.02;29.53;102616.19;4938550;28;97730;-64
2022/03/22 08:45:07;;;;;;;;;;;;;;;32.14;29.94;102608.88;4957085;28;98400;-64
2022/03/22 08:47:35;;;;;;;;;;;;;;;32.19;30.04;102606.63;4963198;28;98029;-64
2022/03/22 08:50:02;;;;;;;;;;;;;;;32.19;30.23;102603.84;4943519;28;97774;-64
2022/03/22 08:52:28;;;;;;;;;;;;;;;32.20;30.21;102590.72;4942413;28;99324;-64
2022/03/22 08:54:54;;;;;;;;;;;;;;;32.24;30.69;102586.00;4941836;28;98967;-65
2022/03/22 08:57:20;;;;;;;;;;;;;;;32.31;30.77;102590.94;4941693;28;128266;-64
2022/03/22 08:59:46;;;;;;;;;;;;;;;32.39;31.17;102587.97;4943061;28;121319;-72
2022/03/22 09:02:12;;;;;;;;;;;;;;;32.53;31.28;102590.22;4941841;28;101628;-72
2022/03/22 09:07:24;;;;;;;;;;;;;;;32.97;31.11;102582.34;4925460;28;98085;-64
2022/03/22 09:09:50;;;;;;;;;;;;;;;33.22;30.99;102574.41;4941926;28;120883;-64
2022/03/22 09:12:16;;;;;;;;;;;;;;;33.51;30.63;102572.09;4922600;28;127813;-71
2022/03/22 09:14:42;;;;;;;;;;;;;;;33.79;30.56;102571.69;4939068;28;127798;-65
2022/03/22 09:17:08;;;;;;;;;;;;;;;34.08;30.37;102574.94;4941128;28;128225;-71
2022/03/22 09:19:36;;;;;;;;;;;;;;;34.34;30.53;102560.88;4907795;28;97896;-65
2022/03/22 09:22:05;;;;;;;;;;;;;;;34.62;30.17;102559.63;4923520;28;99195;-65
2022/03/22 09:24:34;;;;;;;;;;;;;;;34.88;30.11;102550.28;4941774;28;98623;-65
2022/03/22 09:27:01;;;;;;;;;;;;;;;35.12;30.18;102557.34;4924425;28;98427;-65
2022/03/22 09:29:26;;;;;;;;;;;;;;;35.35;29.78;102554.31;4923980;28;100668;-65
2022/03/22 09:31:53;;;;;;;;;;;;;;;35.56;29.86;102548.88;4941407;28;125780;-71
2022/03/22 09:34:19;;;;;;;;;;;;;;;35.82;29.50;102544.22;4922830;28;122717;-65
2022/03/22 09:36:44;;;;;;;;;;;;;;;36.07;29.42;102552.78;4921840;28;122197;-71
2022/03/22 09:39:10;;;;;;;;;;;;;;;36.31;28.90;102554.06;4942224;28;121637;-71
2022/03/22 09:41:37;;;;;;;;;;;;;;;36.55;28.59;102544.16;4941132;28;127796;-71
2022/03/22 09:44:04;;;;;;;;;;;;;;;36.79;28.35;102543.41;4942036;28;98815;-65
2022/03/22 09:46:32;;;;;;;;;;;;;;;37.06;28.14;102540.22;4940865;28;97821;-65
2022/03/22 09:48:58;;;;;;;;;;;;;;;37.34;28.28;102539.41;4924705;28;99009;-72
2022/03/22 09:54:10;;;;;;;;;;;;;;;37.97;27.57;102534.09;4939281;28;98140;-65
2022/03/22 09:56:36;;;;;;;;;;;;;;;38.29;27.03;102531.09;4940262;28;123087;-71
2022/03/22 09:59:04;;;;;;;;;;;;;;;38.64;27.17;102530.09;4940919;28;123241;-72
2022/03/22 10:01:31;;;;;;;;;;;;;;;39.04;26.74;102525.78;4941191;28;111063;-65
2022/03/22 10:04:04;;;;;;;;;;;;;;;39.31;25.70;102516.69;4942325;28;98594;-65
2022/03/22 10:06:30;;;;;;;;;;;;;;;39.50;24.54;102515.28;4941519;28;98085;-72
2022/03/22 10:08:56;;;;;;;;;;;;;;;39.55;23.22;102508.38;4922928;28;122612;-65
2022/03/22 10:11:33;;;;;;;;;;;;;;;39.43;22.20;102504.88;4939518;28;104234;-65
2022/03/22 10:14:00;;;;;;;;;;;;;;;39.32;21.78;102503.41;4940627;28;124073;-65
2022/03/22 10:16:26;;;;;;;;;;;;;;;39.17;21.61;102500.69;4941131;28;97946;-65
2022/03/22 10:18:52;;;;;;;;;;;;;;;39.04;20.92;102503.22;4922514;28;121577;-65
2022/03/22 10:21:18;;;;;;;;;;;;;;;38.89;20.80;102500.97;4940593;28;98897;-73
2022/03/22 10:23:51;;;;;;;;;;;;;;;38.75;20.01;102491.41;4922483;28;128021;-73
2022/03/22 10:26:17;;;;;;;;;;;;;;;38.72;19.96;102497.06;4940936;28;98840;-73
2022/03/22 10:28:53;;;;;;;;;;;;;;;38.72;20.25;102491.41;4940682;28;115084;-65
2022/03/22 10:31:20;;;;;;;;;;;;;;;38.77;19.59;102482.50;4943822;28;98499;-71
2022/03/22 10:33:53;;;;;;;;;;;;;;;38.81;19.88;102479.69;4923856;28;98251;-64
2022/03/22 10:36:21;;;;;;;;;;;;;;;38.85;19.74;102486.91;4940199;28;98009;-65
2022/03/22 10:38:59;;;;;;;;;;;;;;;38.88;19.51;102485.28;4941955;28;97826;-64
2022/03/22 10:41:29;;;;;;;;;;;;;;;38.95;18.77;102476.78;4939154;28;128457;-72
2022/03/22 10:44:09;;;;;;;;;;;;;;;39.21;18.51;102478.91;4949373;28;97740;-64
2022/03/22 10:46:36;;;;;;;;;;;;;;;39.52;18.32;102471.34;4960910;28;98284;-71
2022/03/22 10:49:09;;;;;;;;;;;;;;;39.92;17.90;102477.31;4949545;28;97842;-70
2022/03/22 10:51:46;;;;;;;;;;;;;;;40.27;17.47;102475.22;4940227;28;98365;-64
2022/03/22 10:54:15;;;;;;;;;;;;;;;40.44;17.54;102477.00;4940387;28;98232;-64
2022/03/22 10:56:54;;;;;;;;;;;;;;;40.33;17.02;102473.53;4941182;28;98020;-71
2022/03/22 10:59:23;;;;;;;;;;;;;;;40.12;17.22;102476.66;4906690;28;121174;-64
2022/03/22 11:01:49;;;;;;;;;;;;;;;40.06;17.25;102469.88;4941434;28;98300;-64
2022/03/22 11:04:15;;;;;;;;;;;;;;;40.06;17.19;102461.41;4941268;28;98276;-72
2022/03/22 11:06:42;;;;;;;;;;;;;;;40.11;17.15;102458.09;4940281;28;98619;-64
2022/03/22 11:09:08;;;;;;;;;;;;;;;40.32;16.67;102454.97;4940395;28;116886;-64
2022/03/22 11:11:35;;;;;;;;;;;;;;;40.74;16.69;102455.53;4941219;28;98561;-71
2022/03/22 11:14:01;;;;;;;;;;;;;;;41.19;16.08;102458.78;4940778;28;99527;-71
2022/03/22 11:16:28;;;;;;;;;;;;;;;41.53;15.86;102452.06;4939567;28;121677;-72
2022/03/22 11:18:59;;;;;;;;;;;;;;;41.45;15.76;102442.13;4940018;28;117575;-64
2022/03/22 11:21:25;;;;;;;;;;;;;;;41.22;15.84;102440.91;4940471;28;97713;-64
2022/03/22 11:23:52;;;;;;;;;;;;;;;40.85;15.84;102441.22;4938834;28;117999;-64
2022/03/22 11:26:20;;;;;;;;;;;;;;;40.44;16.05;102436.63;4922469;28;98484;-70
2022/03/22 11:28:48;;;;;;;;;;;;;;;40.09;15.75;102435.13;4919307;28;97928;-70
2022/03/22 11:31:16;;;;;;;;;;;;;;;39.73;16.15;102430.81;4920069;28;98835;-64
2022/03/22 11:36:28;;;;;;;;;;;;;;;39.07;15.84;102422.69;4910481;28;97945;-71
2022/03/22 11:38:58;;;;;;;;;;;;;;;38.89;15.87;102413.63;4902224;28;98068;-64
2022/03/22 11:44:21;;;;;;;;;;;;;;;38.61;15.75;102406.22;4943822;28;98056;-64
2022/03/22 11:46:48;;;;;;;;;;;;;;;38.43;15.68;102409.16;4959886;28;98322;-65
2022/03/22 11:49:15;;;;;;;;;;;;;;;38.22;15.85;102410.91;4928231;28;98838;-71
2022/03/22 11:51:55;;;;;;;;;;;;;;;38.00;16.28;102398.97;4939808;28;98243;-64
2022/03/22 11:54:21;;;;;;;;;;;;;;;37.76;16.03;102409.13;4939627;28;98465;-64
2022/03/22 11:56:52;;;;;;;;;;;;;;;37.57;16.27;102407.66;4939384;28;98499;-71
2022/03/22 11:59:19;;;;;;;;;;;;;;;37.39;15.93;102394.84;4940405;28;97851;-71
2022/03/22 12:02:02;;;;;;;;;;;;;;;37.20;16.30;102393.28;4940258;28;98262;-64
2022/03/22 12:04:41;;;;;;;;;;;;;;;36.93;16.16;102390.91;4940238;28;98255;-64
2022/03/22 12:07:09;;;;;;;;;;;;;;;36.72;16.57;102377.72;4921124;28;97909;-65
2022/03/22 12:09:39;;;;;;;;;;;;;;;36.56;16.63;102382.94;4940415;28;97964;-64
2022/03/22 12:12:06;;;;;;;;;;;;;;;36.34;16.54;102377.28;4939889;28;98411;-64
2022/03/22 12:14:34;;;;;;;;;;;;;;;36.09;16.48;102376.47;4939903;28;98282;-73
2022/03/22 12:17:01;;;;;;;;;;;;;;;35.79;16.61;102380.38;4939617;28;104289;-64
2022/03/22 12:19:28;;;;;;;;;;;;;;;35.56;16.70;102369.47;4939297;28;97893;-72
2022/03/22 12:21:54;;;;;;;;;;;;;;;35.40;17.31;102369.78;4920624;28;98931;-71
2022/03/22 12:24:22;;;;;;;;;;;;;;;35.26;17.14;102366.94;4921430;28;101163;-71
2022/03/22 12:26:48;;;;;;;;;;;;;;;35.10;17.08;102369.25;4938890;28;98911;-71
2022/03/22 12:29:14;;;;;;;;;;;;;;;34.88;17.05;102357.06;4938466;28;121382;-64
2022/03/22 12:31:53;;;;;;;;;;;;;;;34.63;17.08;102352.09;4938399;28;119608;-64
2022/03/22 12:34:23;;;;;;;;;;;;;;;34.37;17.48;102350.25;4938896;28;98632;-64
2022/03/22 12:36:49;;;;;;;;;;;;;;;34.12;17.45;102347.25;4938335;28;124094;-64
2022/03/22 12:39:14;;;;;;;;;;;;;;;33.87;16.94;102343.34;4904140;28;122531;-72
2022/03/22 12:41:43;;;;;;;;;;;;;;;33.58;17.23;102333.84;4920872;28;111104;-71
2022/03/22 12:44:09;;;;;;;;;;;;;;;33.33;17.22;102339.09;4932224;28;98339;-70
2022/03/22 12:46:35;;;;;;;;;;;;;;;33.11;17.46;102332.41;4939766;28;128513;-70
2022/03/22 12:49:01;;;;;;;;;;;;;;;32.89;17.36;102328.47;4931249;28;97880;-72
2022/03/22 12:51:27;;;;;;;;;;;;;;;32.73;17.75;102337.81;4938842;28;122018;-64
2022/03/22 12:53:53;;;;;;;;;;;;;;;32.56;17.35;102329.19;4939520;28;99674;-63
2022/03/22 12:56:20;;;;;;;;;;;;;;;32.35;17.66;102330.41;4938385;28;98328;-71
2022/03/22 12:58:46;;;;;;;;;;;;;;;32.13;17.38;102331.22;4918234;28;98461;-71
2022/03/22 13:01:12;;;;;;;;;;;;;;;31.93;17.65;102317.31;4918944;28;98333;-63
2022/03/22 13:03:38;;;;;;;;;;;;;;;31.76;17.66;102326.94;4926611;28;119035;-72
2022/03/22 13:06:06;;;;;;;;;;;;;;;31.62;17.76;102315.50;4920348;28;97978;-64
2022/03/22 13:11:32;;;;;;;;;;;;;;;31.40;17.98;102305.09;4923295;28;98627;-72